createdAt,value
2023-01-30T00:08:56.231Z,101088.44
2023-01-30T00:11:25.476Z,101088.44
2023-01-30T00:13:53.440Z,101100.38
2023-01-30T00:16:21.386Z,101092.13
2023-01-30T00:18:49.692Z,101091.50
2023-01-30T00:21:18.161Z,101091.00
2023-01-30T00:23:46.041Z,101078.38
2023-01-30T00:26:16.257Z,101083.25
2023-01-30T00:46:52.188Z,101056.19
2023-01-30T00:49:21.275Z,101056.19
2023-01-30T00:51:49.685Z,101055.56
2023-01-30T00:54:17.622Z,101062.06
2023-01-30T00:56:45.861Z,101062.81
2023-01-30T00:59:13.930Z,101061.22
2023-01-30T01:01:41.942Z,101054.84
2023-01-30T01:04:10.848Z,101037.75
2023-01-30T01:24:30.395Z,101024.44
2023-01-30T01:26:58.933Z,101024.44
2023-01-30T01:29:27.013Z,101028.44
2023-01-30T01:31:55.029Z,101025.94
2023-01-30T01:34:23.659Z,101022.81
2023-01-30T01:36:54.217Z,101006.28
2023-01-30T01:39:23.002Z,101021.69
2023-01-30T02:00:21.073Z,100982.41
2023-01-30T02:03:12.884Z,100982.41
2023-01-30T02:05:48.745Z,100979.50
2023-01-30T02:08:23.598Z,100984.59
2023-01-30T02:11:26.195Z,100989.03
2023-01-30T02:13:54.757Z,100990.97
2023-01-30T02:16:23.254Z,100982.37
2023-01-30T02:33:37.147Z,100955.28
2023-01-30T02:36:17.987Z,100955.28
2023-01-30T02:39:00.551Z,100964.12
2023-01-30T02:41:44.868Z,100964.28
2023-01-30T02:44:24.551Z,100958.16
2023-01-30T02:47:04.158Z,100954.94
2023-01-30T03:07:09.336Z,100902.47
2023-01-30T03:09:45.405Z,100902.47
2023-01-30T03:12:37.066Z,100909.41
2023-01-30T03:15:18.352Z,100905.41
2023-01-30T03:17:48.207Z,100896.88
2023-01-30T03:20:22.271Z,100891.78
2023-01-30T03:22:50.428Z,100886.78
2023-01-30T03:42:57.396Z,100855.56
2023-01-30T03:45:26.082Z,100855.56
2023-01-30T03:47:54.153Z,100858.25
2023-01-30T03:50:22.166Z,100860.06
2023-01-30T03:52:50.447Z,100848.22
2023-01-30T03:55:19.479Z,100851.94
2023-01-30T03:57:47.861Z,100851.19
2023-01-30T04:00:17.791Z,100843.13
2023-01-30T04:17:49.843Z,100834.31
2023-01-30T04:20:20.538Z,100807.47
2023-01-30T04:22:48.822Z,100831.75
2023-01-30T04:25:17.447Z,100836.84
2023-01-30T04:27:45.926Z,100834.53
2023-01-30T04:30:15.178Z,100830.97
2023-01-30T04:32:43.691Z,100837.41
2023-01-30T04:53:21.730Z,100816.06
2023-01-30T04:55:51.098Z,100816.06
2023-01-30T04:58:19.761Z,100816.53
2023-01-30T05:00:48.384Z,100813.03
2023-01-30T05:03:17.478Z,100812.09
2023-01-30T05:05:48.972Z,100801.16
2023-01-30T05:08:17.179Z,100800.13
2023-01-30T05:10:45.166Z,100806.81
2023-01-30T05:13:18.725Z,100814.41
2023-01-30T05:33:56.159Z,100802.22
2023-01-30T05:36:25.132Z,100802.22
2023-01-30T05:38:53.070Z,100799.22
2023-01-30T05:41:21.645Z,100807.19
2023-01-30T05:43:51.121Z,100805.63
2023-01-30T05:46:19.413Z,100800.34
2023-01-30T05:48:47.586Z,100805.34
2023-01-30T05:51:29.031Z,100795.69
2023-01-30T06:21:23.012Z,100792.22
2023-01-30T06:23:51.708Z,100792.22
2023-01-30T06:26:19.622Z,100801.06
2023-01-30T06:28:48.494Z,100798.97
2023-01-30T06:31:18.703Z,100797.72
2023-01-30T06:33:47.282Z,100794.88
2023-01-30T06:36:15.450Z,100791.81
2023-01-30T06:38:43.779Z,100794.59
2023-01-30T06:41:11.677Z,100805.34
2023-01-30T06:43:39.679Z,100803.28
2023-01-30T06:46:07.974Z,100796.78
2023-01-30T06:48:47.504Z,100799.81
2023-01-30T06:51:39.257Z,100793.97
2023-01-30T06:54:07.477Z,100798.59
2023-01-30T06:56:39.161Z,100796.63
2023-01-30T06:59:10.382Z,100787.91
2023-01-30T07:04:20.398Z,100802.75
2023-01-30T07:06:50.258Z,100795.41
2023-01-30T07:09:18.183Z,100792.44
2023-01-30T07:11:47.396Z,100770.25
2023-01-30T07:14:15.657Z,100792.94
2023-01-30T07:16:43.658Z,100790.34
2023-01-30T07:19:11.976Z,100737.09
2023-01-30T07:21:40.306Z,100728.00
2023-01-30T07:24:08.674Z,100781.09
2023-01-30T07:26:37.872Z,100771.03
2023-01-30T07:29:06.151Z,100773.41
2023-01-30T07:31:34.172Z,100708.84
2023-01-30T07:34:02.265Z,100774.09
2023-01-30T07:36:36.702Z,100772.94
2023-01-30T07:39:05.809Z,100776.59
2023-01-30T07:41:34.563Z,100779.53
2023-01-30T07:46:50.730Z,100769.66
2023-01-30T07:49:19.622Z,100776.00
2023-01-30T07:51:47.666Z,100785.06
2023-01-30T07:54:16.505Z,100779.31
2023-01-30T07:56:44.886Z,100769.44
2023-01-30T07:59:12.891Z,100771.12
2023-01-30T08:01:40.969Z,100764.88
2023-01-30T08:04:09.484Z,100767.19
2023-01-30T08:06:39.805Z,100764.72
2023-01-30T08:09:08.499Z,100746.75
2023-01-30T08:11:36.965Z,100738.72
2023-01-30T08:14:16.722Z,100756.72
2023-01-30T08:16:45.219Z,100742.25
2023-01-30T08:19:18.938Z,100724.69
2023-01-30T08:21:50.495Z,100730.75
2023-01-30T08:37:41.322Z,100702.38
2023-01-30T08:40:11.334Z,100695.63
2023-01-30T08:42:39.340Z,100686.50
2023-01-30T08:45:07.832Z,100683.41
2023-01-30T08:47:36.817Z,100682.25
2023-01-30T08:53:37.585Z,100672.78
2023-01-30T08:56:38.613Z,100680.84
2023-01-30T08:59:08.025Z,100667.37
2023-01-30T09:01:38.455Z,100660.78
2023-01-30T09:04:07.007Z,100665.50
2023-01-30T09:06:34.970Z,100669.59
2023-01-30T09:09:03.340Z,100665.34
2023-01-30T09:11:34.345Z,100669.34
2023-01-30T09:19:46.084Z,100651.31
2023-01-30T09:51:16.905Z,100603.81
2023-01-30T09:54:16.009Z,100603.81
2023-01-30T09:56:44.084Z,100609.34
2023-01-30T09:59:30.767Z,100605.06
2023-01-30T10:02:18.891Z,100611.44
2023-01-30T10:05:00.563Z,100613.09
2023-01-30T10:07:49.889Z,100605.56
2023-01-30T10:10:35.491Z,100598.59
2023-01-30T10:13:12.585Z,100584.75
2023-01-30T10:15:59.761Z,100557.62
2023-01-30T10:24:22.630Z,100559.47
2023-01-30T10:26:52.116Z,100557.44
2023-01-30T10:29:30.395Z,100550.13
2023-01-30T10:32:17.148Z,100546.06
2023-01-30T10:34:51.318Z,100552.81
2023-01-30T10:37:29.768Z,100546.47
2023-01-30T10:40:29.664Z,100485.41
2023-01-30T10:43:15.607Z,100534.41
2023-01-30T10:45:46.398Z,100528.63
2023-01-30T10:48:21.273Z,100512.28
2023-01-30T10:51:00.203Z,100501.25
2023-01-30T10:53:43.711Z,100489.66
2023-01-30T10:56:33.159Z,100493.97
2023-01-30T10:59:22.143Z,100474.28
2023-01-30T11:02:15.892Z,100486.00
2023-01-30T11:42:43.434Z,100381.75
2023-01-30T11:45:18.552Z,100361.06
2023-01-30T11:48:04.919Z,100384.56
2023-01-30T11:50:49.596Z,100381.56
2023-01-30T11:53:32.721Z,100370.47
2023-01-30T11:56:10.573Z,100373.78
2023-01-30T11:58:41.192Z,100339.78
2023-01-30T12:01:11.971Z,100330.56
2023-01-30T12:03:56.773Z,100349.78
2023-01-30T12:06:36.400Z,100356.63
2023-01-30T12:09:05.281Z,100353.44
2023-01-30T12:11:36.871Z,100341.84
2023-01-30T12:17:24.085Z,100350.78
2023-01-30T12:37:39.002Z,100313.56
2023-01-30T12:40:25.519Z,100311.63
2023-01-30T12:43:37.753Z,100306.28
2023-01-30T12:46:54.016Z,100292.53
2023-01-30T12:52:52.695Z,100282.84
2023-01-30T12:58:59.833Z,100278.09
2023-01-30T13:01:43.384Z,100248.25
2023-01-30T13:04:30.151Z,100272.06
2023-01-30T13:07:33.252Z,100272.06
2023-01-30T13:10:12.977Z,100262.56
2023-01-30T13:13:04.304Z,100255.00
2023-01-30T13:15:41.550Z,100244.06
2023-01-30T13:18:25.492Z,100247.28
2023-01-30T13:21:30.650Z,100241.22
2023-01-30T13:24:25.426Z,100239.53
2023-01-30T13:26:55.230Z,100237.97
2023-01-30T13:29:33.000Z,100234.28
2023-01-30T13:32:05.328Z,100221.03
2023-01-30T13:34:44.936Z,100218.72
2023-01-30T13:59:03.829Z,100152.44
2023-01-30T14:02:02.287Z,100161.22
2023-01-30T14:04:30.587Z,100162.59
2023-01-30T14:07:36.035Z,100172.41
2023-01-30T14:10:10.518Z,100120.19
2023-01-30T14:12:41.196Z,100162.25
2023-01-30T14:15:12.854Z,100160.28
2023-01-30T14:18:07.623Z,100162.91
2023-01-30T14:20:41.211Z,100102.13
2023-01-30T14:23:30.668Z,100156.03
2023-01-30T14:25:59.382Z,100145.94
2023-01-30T14:28:37.925Z,100141.34
2023-01-30T14:36:47.841Z,100134.81
2023-01-30T14:50:19.154Z,100125.06
2023-01-30T14:52:50.440Z,100129.25
2023-01-30T14:55:23.598Z,100129.91
2023-01-30T14:57:58.525Z,100140.62
2023-01-30T15:00:32.367Z,100142.81
2023-01-30T15:03:05.190Z,100136.09
2023-01-30T15:05:37.430Z,100138.78
2023-01-30T15:08:17.218Z,100143.34
2023-01-30T15:25:04.769Z,100142.28
2023-01-30T15:27:59.607Z,100142.28
2023-01-30T15:30:49.236Z,100155.72
2023-01-30T15:33:29.911Z,100156.88
2023-01-30T15:36:00.369Z,100147.94
2023-01-30T15:38:34.567Z,100158.78
2023-01-30T15:41:19.130Z,100167.34
2023-01-30T15:55:37.382Z,100169.94
2023-01-30T15:58:12.988Z,100169.94
2023-01-30T16:00:46.250Z,100167.69
2023-01-30T16:03:31.599Z,100164.28
2023-01-30T16:05:59.782Z,100167.59
2023-01-30T16:08:36.075Z,100184.09
2023-01-30T16:11:04.213Z,100207.88
2023-01-30T16:22:07.170Z,100224.59
2023-01-30T16:34:48.176Z,100240.09
2023-01-30T16:37:16.647Z,100240.09
2023-01-30T16:39:48.612Z,100259.97
2023-01-30T16:42:27.908Z,100271.53
2023-01-30T16:45:11.005Z,100280.06
2023-01-30T16:47:40.429Z,100287.38
2023-01-30T16:50:26.708Z,100279.09
2023-01-30T16:52:55.896Z,100292.91
2023-01-30T17:11:36.881Z,100271.13
2023-01-30T17:14:14.550Z,100281.31
2023-01-30T17:16:43.451Z,100287.25
2023-01-30T17:19:12.302Z,100283.12
2023-01-30T17:21:48.894Z,100281.44
2023-01-30T17:24:19.882Z,100262.44
2023-01-30T17:29:43.297Z,100246.78
2023-01-30T17:47:57.716Z,100232.94
2023-01-30T17:50:28.500Z,100232.94
2023-01-30T17:52:56.725Z,100217.59
2023-01-30T17:55:25.339Z,100238.50
2023-01-30T17:57:54.345Z,100225.16
2023-01-30T18:00:23.177Z,100224.88
2023-01-30T18:02:52.651Z,100244.53
2023-01-30T18:20:45.042Z,100241.94
2023-01-30T18:23:14.708Z,100241.94
2023-01-30T18:25:42.516Z,100248.00
2023-01-30T18:28:11.645Z,100238.22
2023-01-30T18:30:40.161Z,100219.53
2023-01-30T18:33:08.296Z,100221.97
2023-01-30T18:35:38.453Z,100217.19
2023-01-30T18:38:20.168Z,100210.03
2023-01-30T18:58:32.743Z,100205.22
2023-01-30T19:01:09.863Z,100204.38
2023-01-30T19:03:38.424Z,100166.97
2023-01-30T19:06:10.086Z,100222.69
2023-01-30T19:08:39.043Z,100212.09
2023-01-30T19:11:31.025Z,100219.53
2023-01-30T19:14:08.405Z,100221.03
2023-01-30T19:37:06.906Z,100220.91
2023-01-30T19:39:35.569Z,100220.91
2023-01-30T19:42:03.825Z,100232.19
2023-01-30T19:44:32.105Z,100242.38
2023-01-30T19:47:00.655Z,100238.94
2023-01-30T19:49:29.255Z,100244.31
2023-01-30T19:52:02.174Z,100251.06
2023-01-30T20:14:41.825Z,100223.94
2023-01-30T20:17:11.128Z,100223.94
2023-01-30T20:19:39.275Z,100229.69
2023-01-30T20:22:08.496Z,100216.87
2023-01-30T20:24:36.968Z,100237.44
2023-01-30T20:27:05.069Z,100231.38
2023-01-30T20:29:33.336Z,100235.06
2023-01-30T20:52:42.679Z,100241.41
2023-01-30T20:55:11.626Z,100239.50
2023-01-30T20:57:43.083Z,100232.84
2023-01-30T21:00:12.938Z,100244.28
2023-01-30T21:02:42.844Z,100249.16
2023-01-30T21:05:11.161Z,100243.38
2023-01-30T21:07:39.170Z,100252.75
2023-01-30T21:10:16.581Z,100244.25
2023-01-30T21:30:42.280Z,100257.00
2023-01-30T21:33:11.159Z,100257.00
2023-01-30T21:35:39.251Z,100260.06
2023-01-30T21:38:26.101Z,100264.31
2023-01-30T21:41:14.837Z,100259.03
2023-01-30T21:43:42.706Z,100255.44
2023-01-30T21:46:25.321Z,100257.00
2023-01-30T22:04:04.022Z,100262.97
2023-01-30T22:06:33.175Z,100262.97
2023-01-30T22:09:02.357Z,100259.91
2023-01-30T22:11:31.215Z,100269.03
2023-01-30T22:13:59.411Z,100261.75
2023-01-30T22:16:29.500Z,100255.56
2023-01-30T22:19:00.661Z,100259.72
2023-01-30T22:21:32.655Z,100257.22
2023-01-30T22:41:52.605Z,100234.59
2023-01-30T22:44:21.436Z,100234.59
2023-01-30T22:46:52.208Z,100252.94
2023-01-30T22:49:20.546Z,100249.91
2023-01-30T22:51:49.064Z,100235.78
2023-01-30T22:54:17.301Z,100256.03
2023-01-30T22:56:48.606Z,100258.47
2023-01-30T22:59:25.972Z,100264.22
2023-01-30T23:17:33.833Z,100257.37
2023-01-30T23:20:02.512Z,100257.37
2023-01-30T23:22:30.656Z,100255.44
2023-01-30T23:24:58.486Z,100262.97
2023-01-30T23:27:27.344Z,100239.34
2023-01-30T23:29:55.404Z,100239.75
2023-01-30T23:32:24.045Z,100262.06
2023-01-30T23:53:23.003Z,100260.06
2023-01-30T23:55:53.008Z,100260.06
2023-01-30T23:58:21.681Z,100263.38
